Time;durP1;ratioP1;P1;durP2;ratioP2;P2;SDS_P1;SDS_P2;PMS_P1;PMS_P2;Temp;Humidity;BMP_temperature;BMP_pressure;BME280_temperature;BME280_humidity;BME280_pressure;Samples;Min_cycle;Max_cycle;Signal;HPM_P1;HPM_P2
2023/07/29 00:02:04;;;;;;;1.30;1.15;;;21.90;1.00;;;;;;5133267;28;20046;-71
2023/07/29 00:04:38;;;;;;;2.25;1.60;;;21.80;1.00;;;;;;5139301;28;20042;-71
2023/07/29 00:07:14;;;;;;;2.03;1.52;;;21.80;1.00;;;;;;5139916;28;20037;-70
2023/07/29 00:09:46;;;;;;;1.45;1.33;;;21.80;1.00;;;;;;5158867;28;20038;-71
2023/07/29 00:12:17;;;;;;;1.38;1.27;;;21.90;1.00;;;;;;5143654;28;20052;-70
2023/07/29 00:14:55;;;;;;;2.10;1.60;;;21.80;1.00;;;;;;5154932;28;20235;-71
2023/07/29 00:17:33;;;;;;;2.05;1.63;;;21.80;1.00;;;;;;5145191;28;20022;-71
2023/07/29 00:20:06;;;;;;;3.05;1.33;;;21.80;1.00;;;;;;5146624;28;20042;-71
2023/07/29 00:22:43;;;;;;;1.40;1.30;;;21.80;1.00;;;;;;5164611;28;20030;-71
2023/07/29 00:25:15;;;;;;;2.03;1.50;;;21.80;1.00;;;;;;5145907;28;20039;-71
2023/07/29 00:27:46;;;;;;;1.65;1.55;;;21.90;1.00;;;;;;5131598;28;20541;-71
2023/07/29 00:30:20;;;;;;;1.52;1.40;;;21.90;1.00;;;;;;5148550;28;20040;-72
2023/07/29 00:32:54;;;;;;;1.63;1.52;;;21.90;1.00;;;;;;5132945;28;20037;-71
2023/07/29 00:35:26;;;;;;;2.13;1.40;;;21.90;1.00;;;;;;5143203;28;20030;-71
2023/07/29 00:37:57;;;;;;;1.63;1.38;;;21.90;1.00;;;;;;5141826;28;20215;-70
2023/07/29 00:40:30;;;;;;;2.08;1.52;;;21.90;1.00;;;;;;5126838;28;20038;-71
2023/07/29 00:43:01;;;;;;;1.35;1.25;;;21.90;1.00;;;;;;5125542;28;20031;-71
2023/07/29 00:45:34;;;;;;;1.65;1.45;;;21.90;1.00;;;;;;5141296;28;20440;-71
2023/07/29 00:48:05;;;;;;;1.77;1.60;;;21.90;1.00;;;;;;5157953;28;20372;-70
2023/07/29 00:50:37;;;;;;;1.55;1.25;;;21.90;1.00;;;;;;5164223;28;20041;-73
2023/07/29 00:53:11;;;;;;;1.80;1.33;;;21.90;1.00;;;;;;5146583;28;20361;-71
2023/07/29 00:55:43;;;;;;;1.70;1.40;;;21.90;1.00;;;;;;5162127;28;20034;-70
2023/07/29 00:58:20;;;;;;;1.92;1.40;;;21.90;1.00;;;;;;5127159;28;20060;-71
2023/07/29 01:03:36;;;;;;;1.73;1.52;;;21.70;1.00;;;;;;5168595;28;20066;-69
2023/07/29 01:06:15;;;;;;;1.92;1.60;;;21.70;99.90;;;;;;5167010;28;20041;-70
2023/07/29 01:09:01;;;;;;;1.40;1.30;;;21.60;99.90;;;;;;5146778;28;20044;-70
2023/07/29 01:11:35;;;;;;;1.80;1.45;;;21.50;1.00;;;;;;5162001;28;20040;-71
2023/07/29 01:14:38;;;;;;;2.22;1.30;;;21.50;1.00;;;;;;5162656;28;20034;-69
2023/07/29 01:17:18;;;;;;;1.58;1.40;;;21.60;1.00;;;;;;5161387;28;20040;-70
2023/07/29 01:20:05;;;;;;;2.35;1.67;;;21.50;1.00;;;;;;5162347;28;20041;-70
2023/07/29 01:22:40;;;;;;;1.83;1.27;;;21.50;1.00;;;;;;5142656;28;20034;-70
2023/07/29 01:25:11;;;;;;;1.77;1.40;;;21.50;1.00;;;;;;5160385;28;20036;-71
2023/07/29 01:27:46;;;;;;;2.83;1.80;;;21.40;1.00;;;;;;5142633;28;20030;-72
2023/07/29 01:30:19;;;;;;;2.28;1.77;;;21.50;1.00;;;;;;5141988;28;20262;-70
2023/07/29 01:33:00;;;;;;;1.42;1.30;;;21.50;1.00;;;;;;5141629;28;20034;-70
2023/07/29 01:35:55;;;;;;;2.17;1.88;;;21.40;1.00;;;;;;5160217;28;20038;-71
2023/07/29 01:38:37;;;;;;;1.73;1.58;;;21.40;1.00;;;;;;5142446;28;20048;-70
2023/07/29 01:41:09;;;;;;;1.90;1.67;;;21.40;11.80;;;;;;5145985;28;20029;-71
2023/07/29 01:43:43;;;;;;;1.70;1.40;;;21.40;57.20;;;;;;5162763;28;20338;-71
2023/07/29 01:46:18;;;;;;;;;;;21.40;21.70;;;;;;5174633;28;20032;-70
2023/07/29 01:48:51;;;;;;;2.97;1.73;;;21.50;1.00;;;;;;5179514;28;19905;-70
2023/07/29 01:51:26;;;;;;;2.85;1.73;;;21.50;1.00;;;;;;5169967;28;20038;-70
2023/07/29 01:54:00;;;;;;;2.80;1.65;;;21.50;1.00;;;;;;5161694;28;20050;-71
2023/07/29 01:56:31;;;;;;;1.77;1.50;;;21.50;1.00;;;;;;5142837;28;20343;-70
2023/07/29 01:59:03;;;;;;;2.70;2.47;;;21.40;99.90;;;;;;5138620;28;20041;-70
2023/07/29 02:01:37;;;;;;;1.92;1.52;;;21.30;99.90;;;;;;5158800;28;20053;-71
2023/07/29 02:04:08;;;;;;;1.67;1.57;;;21.10;1.00;;;;;;5162827;28;20254;-71
2023/07/29 02:06:40;;;;;;;2.13;1.60;;;20.90;1.00;;;;;;5131383;28;20044;-70
2023/07/29 02:09:11;;;;;;;1.92;1.73;;;20.90;43.20;;;;;;5144169;28;20022;-71
2023/07/29 02:11:42;;;;;;;1.90;1.70;;;20.80;93.00;;;;;;5160195;28;20034;-71
2023/07/29 02:14:13;;;;;;;1.90;1.65;;;20.80;1.00;;;;;;5173781;28;20037;-71
2023/07/29 02:16:45;;;;;;;1.98;1.50;;;20.90;1.00;;;;;;5159947;28;20552;-70
2023/07/29 02:19:19;;;;;;;1.95;1.55;;;21.00;1.00;;;;;;5141773;28;20038;-69
2023/07/29 02:21:50;;;;;;;2.03;1.55;;;21.00;99.90;;;;;;5158652;28;20030;-70
2023/07/29 02:24:23;;;;;;;1.60;1.50;;;21.10;99.90;;;;;;5126099;28;20444;-71
2023/07/29 02:26:55;;;;;;;1.70;1.60;;;21.10;99.90;;;;;;5142097;28;20352;-70
2023/07/29 02:29:30;;;;;;;1.60;1.50;;;21.00;99.90;;;;;;5161687;28;20380;-70
2023/07/29 02:32:01;;;;;;;1.88;1.38;;;21.00;1.00;;;;;;5156850;28;20038;-70
2023/07/29 02:34:33;;;;;;;1.77;1.60;;;21.00;1.00;;;;;;5141612;28;20038;-70
2023/07/29 02:37:04;;;;;;;1.67;1.30;;;21.00;99.90;;;;;;5143461;28;20457;-70
2023/07/29 02:39:39;;;;;;;1.40;1.27;;;21.00;32.10;;;;;;5157135;28;20094;-70
2023/07/29 02:42:12;;;;;;;;;;;21.00;1.00;;;;;;5162564;28;20060;-70
2023/07/29 02:44:44;;;;;;;1.20;1.00;;;21.10;99.90;;;;;;5161303;28;19905;-71
2023/07/29 02:47:19;;;;;;;1.10;1.00;;;21.30;1.00;;;;;;5158503;28;20033;-70
2023/07/29 02:49:53;;;;;;;0.93;0.93;;;21.50;99.90;;;;;;5161371;28;20034;-70
2023/07/29 02:52:28;;;;;;;0.85;0.85;;;21.80;92.30;;;;;;5168760;28;20532;-70
2023/07/29 02:54:59;;;;;;;;;;;21.90;1.00;;;;;;5142057;28;20030;-71
2023/07/29 02:57:32;;;;;;;1.10;1.00;;;22.00;1.00;;;;;;5140124;28;19910;-70
2023/07/29 03:00:08;;;;;;;1.17;1.07;;;22.00;1.00;;;;;;5124320;28;20049;-70
2023/07/29 03:02:41;;;;;;;1.38;0.90;;;22.00;1.00;;;;;;5158037;28;20284;-70
2023/07/29 03:05:15;;;;;;;1.02;0.90;;;22.10;1.00;;;;;;5159546;28;20137;-70
2023/07/29 03:07:51;;;;;;;1.92;0.98;;;22.10;1.00;;;;;;5141192;28;20038;-70
2023/07/29 03:10:23;;;;;;;1.10;1.00;;;22.00;1.00;;;;;;5141565;28;20022;-70
2023/07/29 03:12:57;;;;;;;1.23;0.70;;;22.00;1.00;;;;;;5157465;28;20052;-71
2023/07/29 03:15:30;;;;;;;3.15;1.23;;;22.00;1.00;;;;;;5138753;28;20036;-70
2023/07/29 03:18:04;;;;;;;2.10;1.42;;;21.90;1.00;;;;;;5141312;28;20018;-70
2023/07/29 03:20:36;;;;;;;1.00;0.90;;;21.80;1.00;;;;;;5124782;28;20038;-70
2023/07/29 03:23:12;;;;;;;1.48;0.90;;;21.80;1.00;;;;;;5157823;28;20045;-71
2023/07/29 03:25:46;;;;;;;1.42;1.30;;;21.70;1.00;;;;;;5159105;28;20041;-70
2023/07/29 03:28:19;;;;;;;2.20;1.17;;;21.60;1.00;;;;;;5118248;28;20045;-70
2023/07/29 03:30:51;;;;;;;0.77;0.77;;;21.60;1.00;;;;;;5151216;28;20114;-70
2023/07/29 03:33:24;;;;;;;2.72;1.13;;;21.60;1.00;;;;;;5156738;28;20031;-70
2023/07/29 03:35:58;;;;;;;1.60;1.23;;;21.60;1.00;;;;;;5148945;28;20034;-71
2023/07/29 03:38:39;;;;;;;1.13;1.02;;;21.50;1.00;;;;;;5156173;28;20047;-71
2023/07/29 03:41:14;;;;;;;1.42;1.20;;;21.50;1.00;;;;;;5127126;28;20034;-71
2023/07/29 03:43:45;;;;;;;;;;;21.50;1.00;;;;;;5140537;28;20034;-71
2023/07/29 03:46:21;;;;;;;1.50;1.40;;;21.40;1.00;;;;;;5154904;28;19913;-71
2023/07/29 03:48:53;;;;;;;1.33;1.10;;;21.30;1.00;;;;;;5157551;28;20106;-71
2023/07/29 03:51:24;;;;;;;1.85;1.08;;;21.20;1.00;;;;;;5158424;28;20036;-71
2023/07/29 03:53:58;;;;;;;1.83;1.00;;;21.20;1.00;;;;;;5178046;28;20038;-71
2023/07/29 03:56:30;;;;;;;2.22;1.20;;;21.20;1.00;;;;;;5175952;28;20048;-71
2023/07/29 03:59:07;;;;;;;1.27;1.05;;;21.10;1.00;;;;;;5140442;28;20038;-70
2023/07/29 04:01:40;;;;;;;1.35;1.15;;;21.10;1.00;;;;;;5115345;28;20057;-71
2023/07/29 04:04:12;;;;;;;1.53;1.17;;;21.10;1.00;;;;;;5160510;28;20030;-70
2023/07/29 04:06:46;;;;;;;1.38;1.20;;;21.00;1.00;;;;;;5157251;28;20030;-70
2023/07/29 04:09:19;;;;;;;1.20;1.10;;;21.00;1.00;;;;;;5149000;28;20227;-70
2023/07/29 04:11:52;;;;;;;1.60;1.23;;;20.90;27.90;;;;;;5161033;28;20041;-71
2023/07/29 04:14:23;;;;;;;1.45;1.20;;;20.90;99.90;;;;;;5165879;28;20044;-71
2023/07/29 04:16:59;;;;;;;1.42;1.25;;;20.90;99.90;;;;;;5160020;28;20284;-71
2023/07/29 04:19:30;;;;;;;1.60;1.33;;;20.80;99.90;;;;;;5140127;28;20022;-70
2023/07/29 04:22:02;;;;;;;1.92;1.10;;;20.80;99.90;;;;;;5156421;28;20022;-71
2023/07/29 04:24:34;;;;;;;1.17;1.08;;;20.70;1.00;;;;;;5157959;28;20034;-71
2023/07/29 04:27:12;;;;;;;1.85;1.27;;;20.80;1.00;;;;;;5140173;28;20268;-70
2023/07/29 04:29:50;;;;;;;1.83;1.20;;;20.80;1.00;;;;;;5158165;28;20030;-72
2023/07/29 04:32:22;;;;;;;2.03;1.40;;;20.80;1.00;;;;;;5137228;28;20042;-71
2023/07/29 04:34:53;;;;;;;1.58;1.02;;;20.90;1.00;;;;;;5143318;28;20022;-71
2023/07/29 04:37:25;;;;;;;1.00;0.90;;;21.00;1.00;;;;;;5145741;28;20487;-70
2023/07/29 04:40:01;;;;;;;1.20;1.10;;;21.00;1.00;;;;;;5161335;28;20042;-70
2023/07/29 04:42:35;;;;;;;1.20;1.10;;;21.10;1.00;;;;;;5144993;28;20052;-70
2023/07/29 04:45:07;;;;;;;1.33;1.23;;;21.10;1.00;;;;;;5167112;28;20032;-70
2023/07/29 04:47:42;;;;;;;2.50;2.20;;;21.20;1.00;;;;;;5139461;28;20046;-70
2023/07/29 04:50:13;;;;;;;1.40;1.30;;;21.30;1.00;;;;;;5163496;28;20577;-70
2023/07/29 04:52:47;;;;;;;1.50;1.20;;;21.40;1.00;;;;;;5166866;28;20050;-72
2023/07/29 04:55:18;;;;;;;0.95;0.93;;;21.40;1.00;;;;;;5139886;28;20036;-70
2023/07/29 04:57:49;;;;;;;1.67;1.30;;;21.50;1.00;;;;;;5142373;28;20033;-70
2023/07/29 05:00:21;;;;;;;2.15;1.45;;;21.50;1.00;;;;;;5150473;28;20038;-70
2023/07/29 05:02:55;;;;;;;1.20;1.10;;;21.60;1.00;;;;;;5129212;28;20126;-71
2023/07/29 05:05:26;;;;;;;1.52;1.27;;;21.70;1.00;;;;;;5163500;28;20435;-70
2023/07/29 05:07:58;;;;;;;1.63;1.33;;;21.70;1.00;;;;;;5163712;28;20030;-71
2023/07/29 05:10:29;;;;;;;1.10;1.00;;;21.80;1.00;;;;;;5163696;28;20254;-70
2023/07/29 05:13:03;;;;;;;2.10;1.10;;;21.80;1.00;;;;;;5127623;28;20061;-71
2023/07/29 05:15:35;;;;;;;1.25;1.02;;;21.90;1.00;;;;;;5157063;28;20040;-71
2023/07/29 05:18:06;;;;;;;0.80;0.80;;;21.90;1.00;;;;;;5140624;28;20041;-70
2023/07/29 05:20:37;;;;;;;1.20;1.10;;;22.00;99.90;;;;;;5149585;28;20030;-70
2023/07/29 05:23:14;;;;;;;1.67;1.20;;;22.10;99.90;;;;;;5135813;28;20042;-70
2023/07/29 05:25:46;;;;;;;1.50;1.10;;;22.10;99.90;;;;;;5162543;28;20480;-70
2023/07/29 05:28:20;;;;;;;1.85;1.00;;;22.20;99.90;;;;;;5134017;28;20040;-70
2023/07/29 05:30:51;;;;;;;1.55;1.27;;;22.10;99.90;;;;;;5176668;28;20438;-71
2023/07/29 05:33:22;;;;;;;2.55;1.15;;;22.10;99.90;;;;;;5147972;28;20053;-70
2023/07/29 05:35:56;;;;;;;1.40;1.30;;;22.00;99.90;;;;;;5149652;28;20038;-70
2023/07/29 05:38:28;;;;;;;1.73;1.23;;;22.00;99.90;;;;;;5138876;28;20034;-70
2023/07/29 05:41:06;;;;;;;1.20;1.10;;;22.10;99.90;;;;;;5141556;28;20379;-71
2023/07/29 05:43:37;;;;;;;1.42;0.90;;;22.20;99.90;;;;;;5125728;28;20235;-71
2023/07/29 05:46:11;;;;;;;1.33;1.10;;;22.30;99.90;;;;;;5122749;28;20076;-71
2023/07/29 05:48:42;;;;;;;1.75;1.08;;;22.30;99.90;;;;;;5160640;28;20022;-69
2023/07/29 05:51:15;;;;;;;1.63;1.20;;;22.40;99.90;;;;;;5138008;28;20312;-70
2023/07/29 05:53:46;;;;;;;0.88;0.88;;;22.50;99.90;;;;;;5157086;28;20046;-69
2023/07/29 05:56:18;;;;;;;1.10;0.85;;;22.60;99.90;;;;;;5140484;28;20140;-70
2023/07/29 05:58:52;;;;;;;0.93;0.90;;;22.60;99.90;;;;;;5142710;28;20034;-70
2023/07/29 06:01:23;;;;;;;1.67;1.20;;;22.50;99.90;;;;;;5139862;28;20040;-70
2023/07/29 06:03:57;;;;;;;1.08;0.98;;;22.60;99.90;;;;;;5159376;28;20030;-70
2023/07/29 06:06:29;;;;;;;0.90;0.90;;;22.60;99.90;;;;;;5138429;28;20330;-70
2023/07/29 06:09:00;;;;;;;0.60;0.60;;;22.60;99.90;;;;;;5140448;28;20038;-70
2023/07/29 06:11:36;;;;;;;1.08;0.85;;;22.70;81.60;;;;;;5140241;28;20038;-71
2023/07/29 06:14:07;;;;;;;0.75;0.70;;;22.70;99.90;;;;;;5154265;28;20305;-70
2023/07/29 06:16:39;;;;;;;3.08;1.00;;;22.80;99.90;;;;;;5137250;28;20034;-70
2023/07/29 06:19:10;;;;;;;0.68;0.68;;;22.80;12.10;;;;;;5148746;28;20046;-71
2023/07/29 06:21:42;;;;;;;1.17;0.98;;;22.80;5.60;;;;;;5132725;28;20179;-70
2023/07/29 06:24:13;;;;;;;1.00;1.00;;;22.80;3.10;;;;;;5164224;28;20048;-71
2023/07/29 06:26:45;;;;;;;1.40;0.98;;;22.90;1.00;;;;;;5160269;28;20040;-70
2023/07/29 06:29:16;;;;;;;0.85;0.85;;;22.90;1.00;;;;;;5166103;28;20034;-70
2023/07/29 06:31:51;;;;;;;1.33;1.05;;;22.90;1.00;;;;;;5165506;28;20036;-70
2023/07/29 06:34:25;;;;;;;1.15;1.05;;;22.90;1.00;;;;;;5124890;28;20045;-69
2023/07/29 06:36:56;;;;;;;0.90;0.90;;;22.90;1.00;;;;;;5163049;28;20038;-70
2023/07/29 06:39:30;;;;;;;1.48;1.15;;;22.90;1.00;;;;;;5165632;28;20041;-69
2023/07/29 06:42:02;;;;;;;1.98;1.70;;;23.00;1.00;;;;;;5166890;28;20025;-70
2023/07/29 06:44:34;;;;;;;1.13;1.10;;;23.10;1.00;;;;;;5161064;28;20121;-70
2023/07/29 06:47:05;;;;;;;1.17;1.08;;;23.20;1.00;;;;;;5134634;28;20038;-71
2023/07/29 06:49:38;;;;;;;0.95;0.75;;;23.30;1.00;;;;;;5158563;28;20132;-71
2023/07/29 06:52:12;;;;;;;1.00;0.83;;;23.40;1.00;;;;;;5163607;28;20343;-71
2023/07/29 06:54:46;;;;;;;1.48;0.90;;;23.50;1.00;;;;;;5135876;28;20046;-71
2023/07/29 06:57:17;;;;;;;1.20;1.08;;;23.60;1.00;;;;;;5157328;28;20046;-70
2023/07/29 06:59:48;;;;;;;1.23;1.10;;;23.80;1.00;;;;;;5149408;28;20022;-71
2023/07/29 07:02:20;;;;;;;0.88;0.82;;;23.90;1.00;;;;;;5151730;28;20050;-70
2023/07/29 07:04:53;;;;;;;2.33;1.67;;;23.80;1.00;;;;;;5140509;28;20030;-70
2023/07/29 07:07:27;;;;;;;1.23;1.13;;;23.80;1.00;;;;;;5124215;28;20057;-71
2023/07/29 07:10:00;;;;;;;1.33;1.00;;;23.90;1.00;;;;;;5128540;28;20457;-71
2023/07/29 07:12:34;;;;;;;0.93;0.82;;;24.20;1.00;;;;;;5127575;28;20271;-71
2023/07/29 07:15:12;;;;;;;1.30;1.02;;;24.40;1.00;;;;;;5147207;28;20277;-70
2023/07/29 07:17:44;;;;;;;1.02;0.73;;;24.60;1.00;;;;;;5118118;28;20360;-71
2023/07/29 07:20:19;;;;;;;1.27;0.82;;;24.70;1.00;;;;;;5137775;28;20297;-72
2023/07/29 07:22:50;;;;;;;1.30;0.80;;;24.90;1.00;;;;;;5120759;28;20038;-70
2023/07/29 07:25:22;;;;;;;0.80;0.73;;;24.90;1.00;;;;;;5151208;28;20332;-71
2023/07/29 07:27:53;;;;;;;0.93;0.85;;;24.90;99.90;;;;;;5126102;28;20207;-71
2023/07/29 07:30:24;;;;;;;0.70;0.70;;;24.90;99.90;;;;;;5155513;28;20173;-71
2023/07/29 07:32:56;;;;;;;1.00;0.90;;;24.90;99.90;;;;;;5143713;28;20034;-71
2023/07/29 07:35:30;;;;;;;1.10;0.80;;;25.10;99.90;;;;;;5165621;28;20362;-70
2023/07/29 07:38:03;;;;;;;0.95;0.85;;;25.40;99.90;;;;;;5126754;28;20410;-71
2023/07/29 07:40:35;;;;;;;1.00;0.90;;;25.60;99.90;;;;;;5142535;28;20038;-70
2023/07/29 07:43:09;;;;;;;0.93;0.90;;;26.10;99.90;;;;;;5127066;28;20041;-70
2023/07/29 07:45:40;;;;;;;0.93;0.77;;;26.50;17.00;;;;;;5155544;28;20036;-70
2023/07/29 07:48:13;;;;;;;1.10;0.80;;;26.80;1.00;;;;;;5140502;28;20331;-71
2023/07/29 07:50:45;;;;;;;1.25;1.00;;;27.20;1.00;;;;;;5141284;28;20040;-71
2023/07/29 07:53:16;;;;;;;0.82;0.80;;;27.30;1.00;;;;;;5159965;28;20072;-71
2023/07/29 07:55:52;;;;;;;0.80;0.80;;;27.80;1.00;;;;;;5160081;28;20346;-70
2023/07/29 07:58:26;;;;;;;0.60;0.60;;;27.70;99.90;;;;;;5140974;28;20027;-71
2023/07/29 08:01:05;;;;;;;1.05;0.70;;;28.20;99.90;;;;;;5099822;28;20380;-70
2023/07/29 08:03:41;;;;;;;1.20;1.00;;;28.10;99.90;;;;;;5139619;28;20042;-71
2023/07/29 08:06:13;;;;;;;0.77;0.75;;;28.20;99.90;;;;;;5127122;28;20040;-71
2023/07/29 08:08:44;;;;;;;1.00;0.90;;;28.30;99.90;;;;;;5139854;28;20046;-72
2023/07/29 08:11:17;;;;;;;0.70;0.70;;;27.90;99.90;;;;;;5140249;28;20305;-72
2023/07/29 08:13:54;;;;;;;0.80;0.80;;;27.10;99.90;;;;;;5139585;28;20153;-72
2023/07/29 08:16:25;;;;;;;0.95;0.82;;;27.50;99.90;;;;;;5137294;28;20603;-72
2023/07/29 08:19:02;;;;;;;0.68;0.68;;;28.10;99.90;;;;;;5124008;28;20256;-71
2023/07/29 08:21:36;;;;;;;0.70;0.60;;;27.80;99.90;;;;;;5139265;28;20027;-71
2023/07/29 08:24:13;;;;;;;1.08;0.85;;;27.60;67.80;;;;;;5158385;28;20030;-71
2023/07/29 08:26:51;;;;;;;0.70;0.70;;;27.50;45.40;;;;;;5123550;28;20335;-72
2023/07/29 08:29:28;;;;;;;0.77;0.63;;;27.20;24.10;;;;;;5140977;28;20038;-72
2023/07/29 08:32:04;;;;;;;0.60;0.60;;;27.00;57.20;;;;;;5134153;28;20342;-70
2023/07/29 08:34:38;;;;;;;0.60;0.60;;;26.90;12.10;;;;;;5126345;28;20042;-70
2023/07/29 08:37:09;;;;;;;0.70;0.55;;;27.00;7.60;;;;;;5127673;28;20026;-71
2023/07/29 08:39:40;;;;;;;2.17;0.85;;;26.90;7.50;;;;;;5144177;28;20031;-71
2023/07/29 08:42:13;;;;;;;0.77;0.77;;;27.40;1.00;;;;;;5144893;28;20046;-71
2023/07/29 08:44:45;;;;;;;1.30;0.90;;;27.60;1.00;;;;;;5162873;28;20129;-71
2023/07/29 08:47:18;;;;;;;0.70;0.60;;;27.60;1.00;;;;;;5177571;28;20041;-71
2023/07/29 08:49:53;;;;;;;0.95;0.73;;;27.70;1.00;;;;;;5178736;28;20322;-72
2023/07/29 08:52:28;;;;;;;1.67;0.80;;;28.10;4.40;;;;;;5149044;28;20060;-72
2023/07/29 08:54:59;;;;;;;0.70;0.70;;;28.30;1.00;;;;;;5161704;28;20330;-71
2023/07/29 08:57:37;;;;;;;0.98;0.73;;;28.30;1.00;;;;;;5142873;28;20018;-73
2023/07/29 09:00:09;;;;;;;0.63;0.60;;;28.70;1.00;;;;;;5140958;28;20068;-71
2023/07/29 09:02:43;;;;;;;0.70;0.70;;;29.40;1.00;;;;;;5127146;28;20516;-72
2023/07/29 09:05:14;;;;;;;0.80;0.77;;;29.50;1.00;;;;;;5143339;28;20230;-71
2023/07/29 09:07:49;;;;;;;0.68;0.68;;;29.40;1.00;;;;;;5161146;28;20033;-71
2023/07/29 09:10:23;;;;;;;0.70;0.70;;;29.60;1.00;;;;;;5143869;28;20030;-71
2023/07/29 09:12:56;;;;;;;0.93;0.90;;;29.90;1.00;;;;;;5129314;28;20064;-71
2023/07/29 09:15:31;;;;;;;0.93;0.80;;;29.10;1.00;;;;;;5123764;28;20042;-71
2023/07/29 09:18:16;;;;;;;0.93;0.80;;;29.60;1.00;;;;;;5161181;28;20026;-72
2023/07/29 09:20:52;;;;;;;1.42;0.90;;;29.80;1.00;;;;;;5142646;28;20365;-71
2023/07/29 09:23:41;;;;;;;1.00;0.65;;;30.00;1.00;;;;;;5133854;28;20053;-71
2023/07/29 09:26:12;;;;;;;0.70;0.70;;;30.00;1.00;;;;;;5127307;28;20034;-72
2023/07/29 09:28:44;;;;;;;1.00;0.63;;;29.80;1.00;;;;;;5134214;28;20037;-73
2023/07/29 09:31:23;;;;;;;1.10;0.80;;;30.00;1.00;;;;;;5141330;28;20044;-74
2023/07/29 09:34:05;;;;;;;1.17;1.08;;;30.20;1.00;;;;;;5139602;28;20042;-74
2023/07/29 09:36:40;;;;;;;0.75;0.73;;;30.10;1.00;;;;;;5160150;28;20212;-72
2023/07/29 09:39:14;;;;;;;0.77;0.70;;;30.40;1.00;;;;;;5143061;28;20038;-71
2023/07/29 09:41:50;;;;;;;1.10;0.85;;;31.30;1.00;;;;;;5146525;28;20038;-71
2023/07/29 09:44:27;;;;;;;0.75;0.60;;;31.70;1.00;;;;;;5148481;28;20056;-72
2023/07/29 09:46:59;;;;;;;0.73;0.70;;;31.90;1.00;;;;;;5157150;28;20243;-71
2023/07/29 09:49:36;;;;;;;1.45;0.80;;;32.30;1.00;;;;;;5126567;28;20046;-73
2023/07/29 09:52:10;;;;;;;0.85;0.85;;;31.90;1.00;;;;;;5165505;28;20018;-74
2023/07/29 09:54:48;;;;;;;0.63;0.63;;;31.70;1.00;;;;;;5181301;28;20234;-71
2023/07/29 09:57:21;;;;;;;0.85;0.70;;;32.20;1.00;;;;;;5157018;28;20042;-70
2023/07/29 09:59:59;;;;;;;0.77;0.77;;;32.30;1.00;;;;;;5159394;28;20271;-71
2023/07/29 10:02:30;;;;;;;0.82;0.50;;;32.40;1.00;;;;;;5159496;28;20124;-71
2023/07/29 10:05:04;;;;;;;0.70;0.70;;;32.70;1.00;;;;;;5128065;28;20323;-72
2023/07/29 10:07:39;;;;;;;0.70;0.70;;;32.60;1.00;;;;;;5162328;28;20034;-71
2023/07/29 10:10:12;;;;;;;0.75;0.70;;;32.40;1.00;;;;;;5130081;28;20582;-71
2023/07/29 10:12:47;;;;;;;0.73;0.60;;;32.70;99.90;;;;;;5127865;28;20049;-71
2023/07/29 10:15:18;;;;;;;0.82;0.70;;;33.30;99.90;;;;;;5125254;28;20039;-71
2023/07/29 10:17:54;;;;;;;0.63;0.63;;;33.00;99.90;;;;;;5163648;28;20154;-71
2023/07/29 10:20:27;;;;;;;1.08;0.70;;;32.20;99.90;;;;;;5144998;28;20037;-71
2023/07/29 10:23:07;;;;;;;1.25;0.80;;;31.80;99.90;;;;;;5129588;28;20049;-71
2023/07/29 10:25:46;;;;;;;0.70;0.70;;;31.30;99.90;;;;;;5158582;28;20040;-71
2023/07/29 10:28:25;;;;;;;1.15;0.80;;;30.70;99.90;;;;;;5137393;28;20346;-72
2023/07/29 10:30:59;;;;;;;0.70;0.70;;;30.70;99.90;;;;;;5150422;28;20026;-71
2023/07/29 10:33:33;;;;;;;0.60;0.60;;;30.60;99.90;;;;;;5142342;28;20323;-71
2023/07/29 10:36:08;;;;;;;0.85;0.80;;;30.50;1.00;;;;;;5158937;28;20034;-73
2023/07/29 10:38:43;;;;;;;1.30;0.93;;;31.40;1.00;;;;;;5141622;28;20030;-72
2023/07/29 10:41:14;;;;;;;0.70;0.70;;;32.00;1.00;;;;;;5160074;28;20494;-72
2023/07/29 10:43:46;;;;;;;1.58;1.20;;;32.90;1.00;;;;;;5157268;28;20231;-72
2023/07/29 10:46:28;;;;;;;2.97;1.17;;;34.10;99.90;;;;;;5156470;28;20056;-71
2023/07/29 10:49:02;;;;;;;1.48;1.38;;;35.20;1.00;;;;;;5125513;28;20064;-72
2023/07/29 10:51:39;;;;;;;0.88;0.88;;;36.20;99.90;;;;;;5126379;28;20114;-72
2023/07/29 10:54:14;;;;;;;1.50;1.30;;;36.00;99.90;;;;;;5140841;28;20034;-72
2023/07/29 10:56:51;;;;;;;2.60;1.30;;;36.00;99.90;;;;;;5125080;28;20040;-72
2023/07/29 10:59:34;;;;;;;1.85;1.27;;;35.10;99.90;;;;;;5141430;28;20521;-72
2023/07/29 11:02:18;;;;;;;1.80;1.15;;;34.00;99.90;;;;;;5117084;28;20223;-72
2023/07/29 11:04:54;;;;;;;1.40;1.17;;;33.40;99.90;;;;;;5158011;28;20170;-71
2023/07/29 11:07:29;;;;;;;1.67;1.25;;;33.20;99.90;;;;;;5138177;28;20041;-72
2023/07/29 11:10:04;;;;;;;1.52;1.13;;;33.10;99.90;;;;;;5180149;28;20033;-71
2023/07/29 11:12:52;;;;;;;1.30;1.20;;;34.60;99.90;;;;;;5159593;28;20033;-72
2023/07/29 11:15:25;;;;;;;1.35;1.25;;;36.00;99.90;;;;;;5121340;28;20454;-71
2023/07/29 11:18:02;;;;;;;2.08;1.60;;;36.00;99.90;;;;;;5159673;28;20026;-71
2023/07/29 11:20:34;;;;;;;1.65;1.48;;;37.30;99.90;;;;;;5141577;28;20034;-71
2023/07/29 11:23:05;;;;;;;1.27;1.17;;;38.40;99.90;;;;;;5141181;28;20030;-71
2023/07/29 11:25:39;;;;;;;1.50;1.35;;;39.10;99.90;;;;;;5124370;28;20048;-72
2023/07/29 11:28:10;;;;;;;1.50;1.40;;;40.40;99.90;;;;;;5157553;28;20040;-72
2023/07/29 11:30:42;;;;;;;1.58;1.30;;;39.20;99.90;;;;;;5139756;28;20049;-70
2023/07/29 11:33:14;;;;;;;1.95;1.40;;;37.00;99.90;;;;;;5135016;28;20218;-72
2023/07/29 11:35:52;;;;;;;1.50;1.40;;;36.10;99.90;;;;;;5178626;28;20044;-71
2023/07/29 11:38:24;;;;;;;1.98;1.75;;;34.80;99.90;;;;;;5171643;28;20056;-72
2023/07/29 11:41:07;;;;;;;1.80;1.20;;;34.50;99.90;;;;;;5141284;28;20596;-72
2023/07/29 11:43:42;;;;;;;1.42;1.20;;;34.80;99.90;;;;;;5143896;28;20038;-71
2023/07/29 11:46:21;;;;;;;1.95;1.40;;;35.00;99.90;;;;;;5158166;28;20049;-73
2023/07/29 11:48:55;;;;;;;1.52;1.20;;;35.10;99.90;;;;;;5156741;28;20369;-71
2023/07/29 11:51:26;;;;;;;1.50;1.40;;;34.00;99.90;;;;;;5141485;28;20220;-72
2023/07/29 11:53:58;;;;;;;2.35;1.73;;;33.10;99.90;;;;;;5123560;28;20042;-72
2023/07/29 11:56:32;;;;;;;1.52;1.20;;;32.70;99.90;;;;;;5156357;28;20232;-72
2023/07/29 11:59:07;;;;;;;1.20;1.10;;;33.10;99.90;;;;;;5139922;28;20045;-73
2023/07/29 12:01:39;;;;;;;2.35;1.35;;;32.50;99.90;;;;;;5120981;28;20045;-72
2023/07/29 12:04:19;;;;;;;1.48;1.38;;;33.00;99.90;;;;;;5125423;28;20370;-72
2023/07/29 12:06:51;;;;;;;1.48;1.38;;;33.90;99.90;;;;;;5154311;28;20404;-72
2023/07/29 12:09:25;;;;;;;1.77;1.45;;;34.80;99.90;;;;;;5160634;28;20045;-71
2023/07/29 12:11:59;;;;;;;1.45;1.27;;;36.00;99.90;;;;;;5177210;28;20410;-71
2023/07/29 12:14:32;;;;;;;2.00;1.40;;;36.50;99.90;;;;;;5160340;28;20242;-71
2023/07/29 12:17:05;;;;;;;1.55;1.40;;;35.10;99.90;;;;;;5176295;28;20037;-71
2023/07/29 12:19:43;;;;;;;2.13;1.50;;;34.80;99.90;;;;;;5160146;28;20038;-72
2023/07/29 12:22:19;;;;;;;0.80;0.80;;;33.10;93.00;;;;;;5159804;28;20033;-70
2023/07/29 12:24:53;;;;;;;1.30;0.77;;;32.00;50.90;;;;;;5158415;28;20029;-71
2023/07/29 12:27:24;;;;;;;1.08;0.98;;;31.30;32.60;;;;;;5153819;28;20037;-71
2023/07/29 12:29:55;;;;;;;1.67;0.80;;;31.60;62.80;;;;;;5157839;28;20030;-71
2023/07/29 12:32:27;;;;;;;1.27;1.10;;;32.20;72.00;;;;;;5137249;28;20049;-71
2023/07/29 12:35:00;;;;;;;0.70;0.65;;;33.40;91.90;;;;;;5155827;28;20246;-71
2023/07/29 12:37:33;;;;;;;1.08;0.98;;;34.40;99.90;;;;;;5157767;28;20037;-73
2023/07/29 12:40:07;;;;;;;1.55;1.27;;;35.90;99.90;;;;;;5124638;28;20030;-71
2023/07/29 12:42:41;;;;;;;1.55;1.13;;;36.50;99.90;;;;;;5139831;28;20041;-72
2023/07/29 12:45:14;;;;;;;;;;;35.10;99.90;;;;;;5121600;28;20034;-71
2023/07/29 12:47:46;;;;;;;1.10;1.00;;;33.60;67.70;;;;;;5120721;28;19906;-71
2023/07/29 12:50:17;;;;;;;0.88;0.88;;;32.70;46.80;;;;;;5137466;28;20799;-72
2023/07/29 12:52:51;;;;;;;1.15;1.00;;;32.10;45.90;;;;;;5123200;28;20198;-72
2023/07/29 12:55:23;;;;;;;1.23;1.13;;;31.90;28.10;;;;;;5104463;28;20043;-71
2023/07/29 12:57:58;;;;;;;1.10;1.00;;;31.70;37.40;;;;;;5131710;28;20038;-71
2023/07/29 13:00:29;;;;;;;1.38;1.20;;;31.90;33.10;;;;;;5138332;28;20319;-71
2023/07/29 13:03:05;;;;;;;1.38;1.05;;;32.90;63.30;;;;;;5124525;28;20277;-71
2023/07/29 13:05:41;;;;;;;1.20;1.08;;;32.60;71.00;;;;;;5142101;28;20038;-70
2023/07/29 13:08:12;;;;;;;0.80;0.80;;;32.20;27.60;;;;;;5140008;28;20042;-71
2023/07/29 13:10:43;;;;;;;0.75;0.70;;;31.40;32.80;;;;;;5159570;28;20037;-71
2023/07/29 13:13:18;;;;;;;0.93;0.85;;;31.20;48.60;;;;;;5159482;28;20105;-71
2023/07/29 13:15:52;;;;;;;1.13;0.80;;;31.40;30.80;;;;;;5175093;28;20257;-72
2023/07/29 13:18:24;;;;;;;14.52;2.00;;;30.60;22.50;;;;;;5163248;28;20139;-71
2023/07/29 13:20:55;;;;;;;1.25;1.00;;;30.50;7.90;;;;;;5163699;28;20211;-71
2023/07/29 13:23:27;;;;;;;1.10;1.00;;;30.60;14.60;;;;;;5145063;28;20041;-70
2023/07/29 13:26:02;;;;;;;0.70;0.70;;;30.70;22.30;;;;;;5142978;28;20263;-71
2023/07/29 13:28:34;;;;;;;;;;;30.90;40.10;;;;;;5127484;28;20037;-70
2023/07/29 13:31:09;;;;;;;1.73;1.42;;;31.00;28.50;;;;;;5124230;28;19932;-71